createdAt,value
2022-10-05T00:01:42.284Z,101550.06
2022-10-05T00:09:19.009Z,101557.00
2022-10-05T00:16:55.273Z,101538.94
2022-10-05T00:24:29.846Z,101543.97
2022-10-05T00:32:05.112Z,101558.97
2022-10-05T00:39:40.375Z,101555.13
2022-10-05T00:47:35.708Z,101537.09
2022-10-05T00:55:20.622Z,101537.78
2022-10-05T01:03:03.563Z,101515.34
2022-10-05T01:10:43.179Z,101522.41
2022-10-05T01:18:23.239Z,101516.06
2022-10-05T01:26:08.916Z,101487.41
2022-10-05T01:33:50.073Z,101498.03
2022-10-05T01:41:35.024Z,101497.84
2022-10-05T01:49:36.739Z,101496.81
2022-10-05T01:57:21.679Z,101502.94
2022-10-05T02:05:04.361Z,101513.44
2022-10-05T02:12:39.670Z,101521.22
2022-10-05T02:20:20.626Z,101523.66
2022-10-05T02:27:59.213Z,101516.28
2022-10-05T02:35:34.776Z,101508.91
2022-10-05T02:43:20.731Z,101518.56
2022-10-05T02:51:04.635Z,101518.28
2022-10-05T02:58:47.025Z,101507.47
2022-10-05T03:06:26.994Z,101498.38
2022-10-05T03:14:09.483Z,101499.06
2022-10-05T03:21:58.853Z,101494.66
2022-10-05T03:29:41.455Z,101482.25
2022-10-05T03:37:23.966Z,101476.94
2022-10-05T03:45:03.558Z,101467.22
2022-10-05T03:52:44.138Z,101457.56
2022-10-05T04:00:23.212Z,101448.88
2022-10-05T04:08:02.912Z,101441.13
2022-10-05T04:15:42.553Z,101449.22
2022-10-05T04:23:29.275Z,101451.94
2022-10-05T04:31:06.359Z,101457.38
2022-10-05T04:38:53.936Z,101440.41
2022-10-05T04:46:41.293Z,101439.63
2022-10-05T04:54:25.342Z,101452.91
2022-10-05T05:02:06.768Z,101444.09
2022-10-05T05:10:16.280Z,101427.44
2022-10-05T05:18:08.018Z,101436.53
2022-10-05T05:25:49.408Z,101444.66
2022-10-05T05:33:27.338Z,101427.91
2022-10-05T05:41:09.609Z,101421.88
2022-10-05T05:48:45.092Z,101410.53
2022-10-05T05:56:25.423Z,101420.41
2022-10-05T06:04:03.036Z,101417.06
2022-10-05T06:11:43.152Z,101435.91
2022-10-05T06:19:19.663Z,101426.38
2022-10-05T06:27:22.886Z,101427.50
2022-10-05T06:35:07.054Z,101434.09
2022-10-05T06:43:06.700Z,101430.81
2022-10-05T06:50:45.474Z,101436.44
2022-10-05T06:58:32.695Z,101443.03
2022-10-05T07:06:16.431Z,101438.88
2022-10-05T07:14:13.409Z,101441.84
2022-10-05T07:22:01.788Z,101444.16
2022-10-05T07:29:42.997Z,101440.19
2022-10-05T07:37:38.790Z,101440.69
2022-10-05T07:45:29.806Z,101456.41
2022-10-05T07:53:07.470Z,101458.00
2022-10-05T08:00:58.767Z,101451.47
2022-10-05T08:08:41.082Z,101446.56
2022-10-05T08:16:17.677Z,101429.25
2022-10-05T08:23:56.731Z,101417.00
2022-10-05T08:31:34.673Z,101407.72
2022-10-05T08:39:16.316Z,101401.16
2022-10-05T08:47:16.319Z,101389.13
2022-10-05T08:55:16.840Z,101380.50
2022-10-05T09:03:16.455Z,101366.50
2022-10-05T09:11:07.016Z,101364.25
2022-10-05T09:19:08.837Z,101364.41
2022-10-05T09:26:44.776Z,101368.03
2022-10-05T09:34:49.968Z,101359.03
2022-10-05T09:43:00.098Z,101353.72
2022-10-05T09:51:03.534Z,101347.69
2022-10-05T09:59:10.271Z,101325.44
2022-10-05T10:07:03.660Z,101338.94
2022-10-05T10:15:12.014Z,101330.13
2022-10-05T10:23:13.396Z,101313.13
2022-10-05T10:31:01.961Z,101329.28
2022-10-05T10:38:55.103Z,101344.56
2022-10-05T10:46:37.789Z,101339.22
2022-10-05T10:54:42.852Z,101341.91
2022-10-05T11:02:39.275Z,101328.47
2022-10-05T11:10:34.959Z,101303.38
2022-10-05T11:18:20.397Z,101294.34
2022-10-05T11:25:58.772Z,101296.16
2022-10-05T11:34:06.809Z,101284.38
2022-10-05T11:42:09.640Z,101269.84
2022-10-05T11:49:51.453Z,101269.81
2022-10-05T11:57:33.798Z,101266.19
2022-10-05T12:05:18.248Z,101259.00
2022-10-05T12:13:03.036Z,101266.16
2022-10-05T12:20:45.973Z,101252.56
2022-10-05T12:28:25.705Z,101243.47
2022-10-05T12:36:04.967Z,101233.31
2022-10-05T12:43:54.498Z,101226.88
2022-10-05T12:51:39.234Z,101222.34
2022-10-05T12:59:24.555Z,101219.56
2022-10-05T13:07:24.503Z,101207.63
2022-10-05T13:15:05.649Z,101224.69
2022-10-05T13:22:44.873Z,101217.50
2022-10-05T13:30:20.910Z,101220.03
2022-10-05T13:38:04.377Z,101217.31
2022-10-05T13:45:45.143Z,101210.13
2022-10-05T13:53:29.466Z,101211.16
2022-10-05T14:01:08.202Z,101207.63
2022-10-05T14:08:52.090Z,101203.22
2022-10-05T14:16:26.480Z,101185.22
2022-10-05T14:24:43.168Z,101173.47
2022-10-05T14:32:18.862Z,101152.75
2022-10-05T14:39:58.704Z,101150.97
2022-10-05T14:47:39.656Z,101148.34
2022-10-05T14:55:35.973Z,101141.19
2022-10-05T15:03:33.416Z,101144.84
2022-10-05T15:11:11.598Z,101134.03
2022-10-05T15:18:52.970Z,101134.03
2022-10-05T15:26:41.922Z,101135.94
2022-10-05T15:34:22.298Z,101136.03
2022-10-05T15:42:02.021Z,101136.09
2022-10-05T15:49:42.712Z,101130.78
2022-10-05T15:57:26.246Z,101133.63
2022-10-05T16:05:08.427Z,101129.22
2022-10-05T16:12:53.754Z,101136.53
2022-10-05T16:20:37.334Z,101133.00
2022-10-05T16:28:29.139Z,101127.75
2022-10-05T16:36:17.811Z,101113.41
2022-10-05T16:44:04.091Z,101109.00
2022-10-05T16:51:50.768Z,101108.19
2022-10-05T17:00:01.745Z,101116.41
2022-10-05T17:07:53.082Z,101128.09
2022-10-05T17:15:55.252Z,101130.84
2022-10-05T17:23:53.522Z,101128.16
2022-10-05T17:31:32.775Z,101131.75
2022-10-05T17:39:15.267Z,101127.22
2022-10-05T17:46:52.679Z,101134.34
2022-10-05T17:54:48.162Z,101140.59
2022-10-05T18:02:26.941Z,101126.16
2022-10-05T18:10:17.135Z,101130.59
2022-10-05T18:17:56.138Z,101134.13
2022-10-05T18:25:35.739Z,101135.81
2022-10-05T18:33:30.936Z,101137.50
2022-10-05T18:41:10.072Z,101134.72
2022-10-05T18:48:56.796Z,101126.53
2022-10-05T18:56:38.031Z,101132.69
2022-10-05T19:04:26.470Z,101128.09
2022-10-05T19:12:08.144Z,101120.91
2022-10-05T19:19:54.132Z,101143.25
2022-10-05T19:27:40.201Z,101152.97
2022-10-05T19:35:25.618Z,101160.97
2022-10-05T19:43:08.011Z,101177.88
2022-10-05T19:50:54.238Z,101188.50
2022-10-05T19:58:30.038Z,101198.28
2022-10-05T20:06:07.496Z,101197.22
2022-10-05T20:13:42.868Z,101210.47
2022-10-05T20:21:44.440Z,101213.91
2022-10-05T20:29:18.140Z,101229.88
2022-10-05T20:36:53.435Z,101241.41
2022-10-05T20:44:27.616Z,101258.34
2022-10-05T20:52:03.510Z,101253.09
2022-10-05T20:59:37.563Z,101266.63
2022-10-05T21:07:12.709Z,101271.25
2022-10-05T21:14:47.505Z,101274.91
2022-10-05T21:22:22.730Z,101276.97
2022-10-05T21:29:56.408Z,101278.97
2022-10-05T21:37:31.654Z,101282.69
2022-10-05T21:45:06.279Z,101291.72
2022-10-05T21:52:41.316Z,101295.38
2022-10-05T22:00:16.405Z,101294.56
2022-10-05T22:07:51.751Z,101308.94
2022-10-05T22:15:25.455Z,101300.88
2022-10-05T22:23:00.563Z,101306.19
2022-10-05T22:30:34.631Z,101305.22
2022-10-05T22:38:09.930Z,101310.63
2022-10-05T22:45:43.993Z,101324.06
2022-10-05T22:53:19.399Z,101319.50
2022-10-05T23:00:58.317Z,101323.94
2022-10-05T23:08:35.386Z,101331.09
2022-10-05T23:16:10.984Z,101347.16
2022-10-05T23:23:49.212Z,101343.53
2022-10-05T23:31:25.214Z,101345.41
2022-10-05T23:39:00.633Z,101358.88
2022-10-05T23:46:34.286Z,101367.88
2022-10-05T23:54:09.470Z,101367.97
